sensor_id;sensor_type;location;lat;lon;timestamp;temperature;humidity
12291;DHT22;6208;48.956;9.076;2023-05-10T00:02:32;15.90;99.90
12291;DHT22;6208;48.956;9.076;2023-05-10T00:05:16;15.70;99.90
12291;DHT22;6208;48.956;9.076;2023-05-10T00:08:00;15.70;99.90
12291;DHT22;6208;48.956;9.076;2023-05-10T00:10:44;15.80;99.90
12291;DHT22;6208;48.956;9.076;2023-05-10T00:13:28;15.70;99.90
12291;DHT22;6208;48.956;9.076;2023-05-10T00:16:12;15.60;99.90
12291;DHT22;6208;48.956;9.076;2023-05-10T00:18:57;15.60;99.90
12291;DHT22;6208;48.956;9.076;2023-05-10T00:21:41;15.50;99.90
12291;DHT22;6208;48.956;9.076;2023-05-10T00:24:25;15.20;99.90
12291;DHT22;6208;48.956;9.076;2023-05-10T00:27:09;15.20;99.90
12291;DHT22;6208;48.956;9.076;2023-05-10T00:29:53;15.20;99.90
12291;DHT22;6208;48.956;9.076;2023-05-10T00:32:37;15.20;99.90
12291;DHT22;6208;48.956;9.076;2023-05-10T00:35:21;15.40;99.90
12291;DHT22;6208;48.956;9.076;2023-05-10T00:38:06;15.20;99.90
12291;DHT22;6208;48.956;9.076;2023-05-10T00:40:50;15.20;99.90
12291;DHT22;6208;48.956;9.076;2023-05-10T00:43:35;15.20;99.90
12291;DHT22;6208;48.956;9.076;2023-05-10T00:46:19;14.30;99.90
12291;DHT22;6208;48.956;9.076;2023-05-10T00:49:04;15.20;99.90
12291;DHT22;6208;48.956;9.076;2023-05-10T00:51:48;15.20;99.90
12291;DHT22;6208;48.956;9.076;2023-05-10T00:54:32;14.90;99.90
12291;DHT22;6208;48.956;9.076;2023-05-10T00:57:17;14.80;99.90
12291;DHT22;6208;48.956;9.076;2023-05-10T01:00:03;14.80;99.90
12291;DHT22;6208;48.956;9.076;2023-05-10T01:02:47;14.90;99.90
12291;DHT22;6208;48.956;9.076;2023-05-10T01:05:33;15.00;99.90
12291;DHT22;6208;48.956;9.076;2023-05-10T01:08:17;15.00;99.90
12291;DHT22;6208;48.956;9.076;2023-05-10T01:11:02;14.90;99.90
12291;DHT22;6208;48.956;9.076;2023-05-10T01:13:54;14.90;99.90
12291;DHT22;6208;48.956;9.076;2023-05-10T01:16:40;15.00;99.90
12291;DHT22;6208;48.956;9.076;2023-05-10T01:19:27;15.10;99.90
12291;DHT22;6208;48.956;9.076;2023-05-10T01:28:13;15.00;99.90
12291;DHT22;6208;48.956;9.076;2023-05-10T01:31:37;15.00;99.90
12291;DHT22;6208;48.956;9.076;2023-05-10T01:34:29;14.90;99.90
12291;DHT22;6208;48.956;9.076;2023-05-10T01:37:21;15.00;99.90
12291;DHT22;6208;48.956;9.076;2023-05-10T01:43:10;15.20;99.90
12291;DHT22;6208;48.956;9.076;2023-05-10T01:46:01;15.10;99.90
12291;DHT22;6208;48.956;9.076;2023-05-10T01:48:51;14.90;99.90
12291;DHT22;6208;48.956;9.076;2023-05-10T01:51:50;14.70;99.90
12291;DHT22;6208;48.956;9.076;2023-05-10T01:54:38;15.00;99.90
12291;DHT22;6208;48.956;9.076;2023-05-10T01:57:27;15.00;99.90
12291;DHT22;6208;48.956;9.076;2023-05-10T02:00:15;14.90;99.90
12291;DHT22;6208;48.956;9.076;2023-05-10T02:03:04;15.00;99.90
12291;DHT22;6208;48.956;9.076;2023-05-10T02:05:50;15.10;99.90
12291;DHT22;6208;48.956;9.076;2023-05-10T02:08:35;15.10;99.90
12291;DHT22;6208;48.956;9.076;2023-05-10T02:11:21;15.10;99.90
12291;DHT22;6208;48.956;9.076;2023-05-10T02:14:09;15.00;99.90
12291;DHT22;6208;48.956;9.076;2023-05-10T02:16:55;15.00;99.90
12291;DHT22;6208;48.956;9.076;2023-05-10T02:19:41;15.00;99.90
12291;DHT22;6208;48.956;9.076;2023-05-10T02:22:27;15.00;99.90
12291;DHT22;6208;48.956;9.076;2023-05-10T02:25:13;15.00;99.90
12291;DHT22;6208;48.956;9.076;2023-05-10T02:27:58;15.10;99.90
12291;DHT22;6208;48.956;9.076;2023-05-10T02:30:44;15.00;99.90
12291;DHT22;6208;48.956;9.076;2023-05-10T02:33:29;15.20;99.90
12291;DHT22;6208;48.956;9.076;2023-05-10T02:36:15;15.20;99.90
12291;DHT22;6208;48.956;9.076;2023-05-10T02:39:01;15.00;99.90
12291;DHT22;6208;48.956;9.076;2023-05-10T02:41:46;15.00;99.90
12291;DHT22;6208;48.956;9.076;2023-05-10T02:44:32;15.10;99.90
12291;DHT22;6208;48.956;9.076;2023-05-10T02:47:18;15.20;99.90
12291;DHT22;6208;48.956;9.076;2023-05-10T02:50:03;15.30;99.90
12291;DHT22;6208;48.956;9.076;2023-05-10T02:52:50;15.20;99.90
12291;DHT22;6208;48.956;9.076;2023-05-10T02:55:40;15.10;99.90
12291;DHT22;6208;48.956;9.076;2023-05-10T02:58:24;15.20;99.90
12291;DHT22;6208;48.956;9.076;2023-05-10T03:01:09;15.20;99.90
12291;DHT22;6208;48.956;9.076;2023-05-10T03:03:53;15.20;99.90
12291;DHT22;6208;48.956;9.076;2023-05-10T03:06:38;15.10;99.90
12291;DHT22;6208;48.956;9.076;2023-05-10T03:09:22;15.30;99.90
12291;DHT22;6208;48.956;9.076;2023-05-10T03:15:42;15.40;99.90
12291;DHT22;6208;48.956;9.076;2023-05-10T03:18:37;15.40;99.90
12291;DHT22;6208;48.956;9.076;2023-05-10T03:21:25;15.40;99.90
12291;DHT22;6208;48.956;9.076;2023-05-10T03:24:12;15.40;99.90
12291;DHT22;6208;48.956;9.076;2023-05-10T03:27:00;15.50;99.90
12291;DHT22;6208;48.956;9.076;2023-05-10T03:29:47;15.50;99.90
12291;DHT22;6208;48.956;9.076;2023-05-10T03:32:31;15.50;99.90
12291;DHT22;6208;48.956;9.076;2023-05-10T03:35:18;15.30;99.90
12291;DHT22;6208;48.956;9.076;2023-05-10T03:38:02;15.20;99.90
12291;DHT22;6208;48.956;9.076;2023-05-10T03:40:47;15.20;99.90
12291;DHT22;6208;48.956;9.076;2023-05-10T03:43:31;15.60;99.90
12291;DHT22;6208;48.956;9.076;2023-05-10T03:46:15;15.60;99.90
12291;DHT22;6208;48.956;9.076;2023-05-10T03:48:59;15.70;99.90
12291;DHT22;6208;48.956;9.076;2023-05-10T03:51:44;15.60;99.90
12291;DHT22;6208;48.956;9.076;2023-05-10T03:54:28;15.60;99.90
12291;DHT22;6208;48.956;9.076;2023-05-10T03:57:12;15.70;99.90
12291;DHT22;6208;48.956;9.076;2023-05-10T03:59:56;15.70;99.90
12291;DHT22;6208;48.956;9.076;2023-05-10T04:02:40;15.80;99.90
12291;DHT22;6208;48.956;9.076;2023-05-10T04:05:24;15.40;99.90
12291;DHT22;6208;48.956;9.076;2023-05-10T04:08:08;15.40;99.90
12291;DHT22;6208;48.956;9.076;2023-05-10T04:10:53;15.30;99.90
12291;DHT22;6208;48.956;9.076;2023-05-10T04:13:37;15.60;99.90
12291;DHT22;6208;48.956;9.076;2023-05-10T04:16:21;15.60;99.90
12291;DHT22;6208;48.956;9.076;2023-05-10T04:19:05;15.50;99.90
12291;DHT22;6208;48.956;9.076;2023-05-10T04:21:50;15.40;99.90
12291;DHT22;6208;48.956;9.076;2023-05-10T04:24:34;15.50;99.90
12291;DHT22;6208;48.956;9.076;2023-05-10T04:27:18;15.50;99.90
12291;DHT22;6208;48.956;9.076;2023-05-10T04:30:02;15.50;99.90
12291;DHT22;6208;48.956;9.076;2023-05-10T04:32:47;15.30;99.90
12291;DHT22;6208;48.956;9.076;2023-05-10T04:35:31;15.20;99.90
12291;DHT22;6208;48.956;9.076;2023-05-10T04:38:15;15.20;99.90
12291;DHT22;6208;48.956;9.076;2023-05-10T04:41:07;15.30;99.90
12291;DHT22;6208;48.956;9.076;2023-05-10T04:43:52;15.20;99.90
12291;DHT22;6208;48.956;9.076;2023-05-10T04:46:36;15.40;99.90
12291;DHT22;6208;48.956;9.076;2023-05-10T04:49:20;15.30;99.90
12291;DHT22;6208;48.956;9.076;2023-05-10T04:52:05;15.40;99.90
12291;DHT22;6208;48.956;9.076;2023-05-10T04:54:50;15.40;99.90
12291;DHT22;6208;48.956;9.076;2023-05-10T04:57:35;15.20;99.90
12291;DHT22;6208;48.956;9.076;2023-05-10T05:00:20;15.30;99.90
12291;DHT22;6208;48.956;9.076;2023-05-10T05:03:04;15.30;99.90
12291;DHT22;6208;48.956;9.076;2023-05-10T05:05:49;15.50;99.90
12291;DHT22;6208;48.956;9.076;2023-05-10T05:08:33;15.70;99.90
12291;DHT22;6208;48.956;9.076;2023-05-10T05:11:17;15.30;99.90
12291;DHT22;6208;48.956;9.076;2023-05-10T05:14:01;15.30;99.90
12291;DHT22;6208;48.956;9.076;2023-05-10T05:16:45;15.40;99.90
12291;DHT22;6208;48.956;9.076;2023-05-10T05:19:31;15.20;99.90
12291;DHT22;6208;48.956;9.076;2023-05-10T05:22:15;15.30;99.90
12291;DHT22;6208;48.956;9.076;2023-05-10T05:24:59;15.30;99.90
12291;DHT22;6208;48.956;9.076;2023-05-10T05:27:44;15.40;99.90
12291;DHT22;6208;48.956;9.076;2023-05-10T05:30:28;15.60;99.90
12291;DHT22;6208;48.956;9.076;2023-05-10T05:33:15;15.70;99.90
12291;DHT22;6208;48.956;9.076;2023-05-10T05:36:06;15.80;99.90
12291;DHT22;6208;48.956;9.076;2023-05-10T05:38:50;16.00;99.90
12291;DHT22;6208;48.956;9.076;2023-05-10T05:41:34;15.90;99.90
12291;DHT22;6208;48.956;9.076;2023-05-10T05:44:18;15.70;99.90
12291;DHT22;6208;48.956;9.076;2023-05-10T05:47:02;15.60;99.90
12291;DHT22;6208;48.956;9.076;2023-05-10T05:49:47;15.80;99.90
12291;DHT22;6208;48.956;9.076;2023-05-10T05:52:31;15.90;99.90
12291;DHT22;6208;48.956;9.076;2023-05-10T05:55:15;15.90;99.90
12291;DHT22;6208;48.956;9.076;2023-05-10T05:57:59;15.90;99.90
12291;DHT22;6208;48.956;9.076;2023-05-10T06:00:43;16.10;99.90
12291;DHT22;6208;48.956;9.076;2023-05-10T06:03:27;16.20;99.90
12291;DHT22;6208;48.956;9.076;2023-05-10T06:06:11;16.10;99.90
12291;DHT22;6208;48.956;9.076;2023-05-10T06:08:56;15.90;99.90
12291;DHT22;6208;48.956;9.076;2023-05-10T06:11:40;16.00;99.90
12291;DHT22;6208;48.956;9.076;2023-05-10T06:14:24;15.80;99.90
12291;DHT22;6208;48.956;9.076;2023-05-10T06:17:08;15.80;99.90
12291;DHT22;6208;48.956;9.076;2023-05-10T06:19:53;15.90;99.90
12291;DHT22;6208;48.956;9.076;2023-05-10T06:22:37;15.90;99.90
12291;DHT22;6208;48.956;9.076;2023-05-10T06:25:21;15.90;99.90
12291;DHT22;6208;48.956;9.076;2023-05-10T06:28:05;15.80;99.90
12291;DHT22;6208;48.956;9.076;2023-05-10T06:30:49;15.90;99.90
12291;DHT22;6208;48.956;9.076;2023-05-10T06:33:34;15.90;99.90
12291;DHT22;6208;48.956;9.076;2023-05-10T06:36:18;15.90;99.90
12291;DHT22;6208;48.956;9.076;2023-05-10T06:39:03;15.80;99.90
12291;DHT22;6208;48.956;9.076;2023-05-10T06:41:47;15.70;99.90
12291;DHT22;6208;48.956;9.076;2023-05-10T06:44:31;15.70;99.90
12291;DHT22;6208;48.956;9.076;2023-05-10T06:47:15;15.80;99.90
12291;DHT22;6208;48.956;9.076;2023-05-10T06:49:59;15.70;99.90
12291;DHT22;6208;48.956;9.076;2023-05-10T06:52:44;16.00;99.90
12291;DHT22;6208;48.956;9.076;2023-05-10T06:55:28;16.20;99.90
12291;DHT22;6208;48.956;9.076;2023-05-10T06:58:12;16.00;99.90
12291;DHT22;6208;48.956;9.076;2023-05-10T07:01:02;16.10;99.90
12291;DHT22;6208;48.956;9.076;2023-05-10T07:03:46;16.30;99.90
12291;DHT22;6208;48.956;9.076;2023-05-10T07:06:30;16.50;99.90
12291;DHT22;6208;48.956;9.076;2023-05-10T07:09:14;16.30;99.90
12291;DHT22;6208;48.956;9.076;2023-05-10T07:11:58;16.40;99.90
12291;DHT22;6208;48.956;9.076;2023-05-10T07:14:42;16.20;99.90
12291;DHT22;6208;48.956;9.076;2023-05-10T07:17:26;16.20;99.90
12291;DHT22;6208;48.956;9.076;2023-05-10T07:20:11;16.20;99.90
12291;DHT22;6208;48.956;9.076;2023-05-10T07:22:55;16.10;99.90
12291;DHT22;6208;48.956;9.076;2023-05-10T07:25:39;16.20;99.90
12291;DHT22;6208;48.956;9.076;2023-05-10T07:28:23;16.40;99.90
12291;DHT22;6208;48.956;9.076;2023-05-10T07:31:10;16.60;99.90
12291;DHT22;6208;48.956;9.076;2023-05-10T07:33:55;16.70;99.90
12291;DHT22;6208;48.956;9.076;2023-05-10T07:36:39;16.70;99.90
12291;DHT22;6208;48.956;9.076;2023-05-10T07:39:23;16.60;99.90
12291;DHT22;6208;48.956;9.076;2023-05-10T07:42:07;16.70;99.90
12291;DHT22;6208;48.956;9.076;2023-05-10T07:44:52;16.70;99.90
12291;DHT22;6208;48.956;9.076;2023-05-10T07:47:36;16.80;99.90
12291;DHT22;6208;48.956;9.076;2023-05-10T07:50:20;16.40;99.90
12291;DHT22;6208;48.956;9.076;2023-05-10T07:53:05;16.20;99.90
12291;DHT22;6208;48.956;9.076;2023-05-10T07:55:54;16.20;99.90
12291;DHT22;6208;48.956;9.076;2023-05-10T07:58:41;16.20;99.90
12291;DHT22;6208;48.956;9.076;2023-05-10T08:01:25;16.20;99.90
12291;DHT22;6208;48.956;9.076;2023-05-10T08:04:10;16.30;99.90
12291;DHT22;6208;48.956;9.076;2023-05-10T08:06:55;16.30;99.90
12291;DHT22;6208;48.956;9.076;2023-05-10T08:09:39;16.30;99.90
12291;DHT22;6208;48.956;9.076;2023-05-10T08:12:23;16.30;99.90
12291;DHT22;6208;48.956;9.076;2023-05-10T08:15:08;16.40;99.90
12291;DHT22;6208;48.956;9.076;2023-05-10T08:17:53;16.20;99.90
12291;DHT22;6208;48.956;9.076;2023-05-10T08:20:37;16.20;99.90
12291;DHT22;6208;48.956;9.076;2023-05-10T08:23:21;16.40;99.90
12291;DHT22;6208;48.956;9.076;2023-05-10T08:26:05;16.50;99.90
12291;DHT22;6208;48.956;9.076;2023-05-10T08:28:49;16.60;99.90
12291;DHT22;6208;48.956;9.076;2023-05-10T08:31:33;16.50;99.90
12291;DHT22;6208;48.956;9.076;2023-05-10T08:34:17;16.60;99.90
12291;DHT22;6208;48.956;9.076;2023-05-10T08:37:01;16.50;99.90
12291;DHT22;6208;48.956;9.076;2023-05-10T08:39:45;16.80;99.90
12291;DHT22;6208;48.956;9.076;2023-05-10T08:42:34;16.90;99.90
12291;DHT22;6208;48.956;9.076;2023-05-10T08:45:20;16.90;99.90
12291;DHT22;6208;48.956;9.076;2023-05-10T08:48:08;17.00;99.90
12291;DHT22;6208;48.956;9.076;2023-05-10T08:50:53;17.20;99.90
12291;DHT22;6208;48.956;9.076;2023-05-10T08:53:41;17.10;99.90
12291;DHT22;6208;48.956;9.076;2023-05-10T08:56:26;17.10;99.90
12291;DHT22;6208;48.956;9.076;2023-05-10T08:59:10;17.10;99.90
12291;DHT22;6208;48.956;9.076;2023-05-10T09:01:57;16.90;99.90
12291;DHT22;6208;48.956;9.076;2023-05-10T09:04:42;16.60;99.90
12291;DHT22;6208;48.956;9.076;2023-05-10T09:07:27;16.50;99.90
12291;DHT22;6208;48.956;9.076;2023-05-10T09:10:11;16.40;99.90
12291;DHT22;6208;48.956;9.076;2023-05-10T09:12:57;16.30;99.90
12291;DHT22;6208;48.956;9.076;2023-05-10T09:15:43;16.20;99.90
12291;DHT22;6208;48.956;9.076;2023-05-10T09:18:28;16.20;99.90
12291;DHT22;6208;48.956;9.076;2023-05-10T09:21:12;16.20;99.90
12291;DHT22;6208;48.956;9.076;2023-05-10T09:24:03;16.30;99.90
12291;DHT22;6208;48.956;9.076;2023-05-10T09:26:48;16.30;99.90
12291;DHT22;6208;48.956;9.076;2023-05-10T09:29:40;16.30;99.90
12291;DHT22;6208;48.956;9.076;2023-05-10T09:32:44;16.50;99.90
12291;DHT22;6208;48.956;9.076;2023-05-10T09:35:31;16.50;99.90
12291;DHT22;6208;48.956;9.076;2023-05-10T09:38:16;16.70;99.90
12291;DHT22;6208;48.956;9.076;2023-05-10T09:41:00;16.90;99.90
12291;DHT22;6208;48.956;9.076;2023-05-10T09:43:45;16.90;99.90
12291;DHT22;6208;48.956;9.076;2023-05-10T09:46:35;16.90;99.90
12291;DHT22;6208;48.956;9.076;2023-05-10T09:49:21;16.90;99.90
12291;DHT22;6208;48.956;9.076;2023-05-10T09:52:07;17.00;99.90
12291;DHT22;6208;48.956;9.076;2023-05-10T09:54:54;17.00;99.90
12291;DHT22;6208;48.956;9.076;2023-05-10T09:57:39;17.10;99.90
12291;DHT22;6208;48.956;9.076;2023-05-10T10:00:24;17.10;99.90
12291;DHT22;6208;48.956;9.076;2023-05-10T10:03:16;17.00;99.90
12291;DHT22;6208;48.956;9.076;2023-05-10T10:06:00;17.00;99.90
12291;DHT22;6208;48.956;9.076;2023-05-10T10:08:44;17.20;99.90
12291;DHT22;6208;48.956;9.076;2023-05-10T10:11:29;17.50;99.90
12291;DHT22;6208;48.956;9.076;2023-05-10T10:14:13;17.80;99.90
12291;DHT22;6208;48.956;9.076;2023-05-10T10:17:00;17.80;98.90
12291;DHT22;6208;48.956;9.076;2023-05-10T10:19:45;17.80;99.10
12291;DHT22;6208;48.956;9.076;2023-05-10T10:22:30;17.70;98.30
12291;DHT22;6208;48.956;9.076;2023-05-10T10:25:19;17.70;99.00
12291;DHT22;6208;48.956;9.076;2023-05-10T10:28:39;17.60;99.60
12291;DHT22;6208;48.956;9.076;2023-05-10T10:31:34;17.70;99.60
12291;DHT22;6208;48.956;9.076;2023-05-10T10:34:27;17.60;99.80
12291;DHT22;6208;48.956;9.076;2023-05-10T10:37:12;17.80;99.90
12291;DHT22;6208;48.956;9.076;2023-05-10T10:39:56;18.10;99.90
12291;DHT22;6208;48.956;9.076;2023-05-10T10:42:44;18.20;99.90
12291;DHT22;6208;48.956;9.076;2023-05-10T10:45:33;18.00;99.90
12291;DHT22;6208;48.956;9.076;2023-05-10T10:48:22;17.40;99.50
12291;DHT22;6208;48.956;9.076;2023-05-10T10:51:07;16.90;99.90
12291;DHT22;6208;48.956;9.076;2023-05-10T10:53:51;16.60;99.90
12291;DHT22;6208;48.956;9.076;2023-05-10T10:56:35;16.50;99.90
12291;DHT22;6208;48.956;9.076;2023-05-10T10:59:27;16.50;99.90
12291;DHT22;6208;48.956;9.076;2023-05-10T11:02:33;16.70;99.90
12291;DHT22;6208;48.956;9.076;2023-05-10T11:08:34;16.60;99.90
12291;DHT22;6208;48.956;9.076;2023-05-10T11:11:19;16.60;99.90
12291;DHT22;6208;48.956;9.076;2023-05-10T11:14:06;16.80;99.90
12291;DHT22;6208;48.956;9.076;2023-05-10T11:16:51;16.90;99.90
12291;DHT22;6208;48.956;9.076;2023-05-10T11:19:35;17.10;99.90
12291;DHT22;6208;48.956;9.076;2023-05-10T11:22:27;17.20;99.90
12291;DHT22;6208;48.956;9.076;2023-05-10T11:25:12;17.50;99.90
12291;DHT22;6208;48.956;9.076;2023-05-10T11:27:56;17.70;99.90
12291;DHT22;6208;48.956;9.076;2023-05-10T11:30:43;17.90;99.90
12291;DHT22;6208;48.956;9.076;2023-05-10T11:33:27;17.90;99.90
12291;DHT22;6208;48.956;9.076;2023-05-10T11:36:16;17.90;99.90
12291;DHT22;6208;48.956;9.076;2023-05-10T11:39:01;17.80;99.90
12291;DHT22;6208;48.956;9.076;2023-05-10T11:41:48;18.00;99.90
12291;DHT22;6208;48.956;9.076;2023-05-10T11:44:33;17.80;98.20
12291;DHT22;6208;48.956;9.076;2023-05-10T11:47:18;18.00;99.50
12291;DHT22;6208;48.956;9.076;2023-05-10T11:50:02;18.10;98.20
12291;DHT22;6208;48.956;9.076;2023-05-10T11:52:51;18.20;97.60
12291;DHT22;6208;48.956;9.076;2023-05-10T11:55:35;18.20;98.00
12291;DHT22;6208;48.956;9.076;2023-05-10T11:58:20;18.20;96.10
12291;DHT22;6208;48.956;9.076;2023-05-10T12:01:06;18.00;96.80
12291;DHT22;6208;48.956;9.076;2023-05-10T12:03:53;18.00;96.90
12291;DHT22;6208;48.956;9.076;2023-05-10T12:06:40;18.10;96.80
12291;DHT22;6208;48.956;9.076;2023-05-10T12:09:24;18.20;96.80
12291;DHT22;6208;48.956;9.076;2023-05-10T12:12:08;18.10;96.50
12291;DHT22;6208;48.956;9.076;2023-05-10T12:14:52;18.10;97.60
12291;DHT22;6208;48.956;9.076;2023-05-10T12:17:38;17.90;96.40
12291;DHT22;6208;48.956;9.076;2023-05-10T12:20:26;17.70;95.70
12291;DHT22;6208;48.956;9.076;2023-05-10T12:23:13;17.60;95.10
12291;DHT22;6208;48.956;9.076;2023-05-10T12:26:04;17.60;93.60
12291;DHT22;6208;48.956;9.076;2023-05-10T12:28:48;17.60;94.00
12291;DHT22;6208;48.956;9.076;2023-05-10T12:31:32;17.50;94.70
12291;DHT22;6208;48.956;9.076;2023-05-10T12:34:31;17.60;94.20
12291;DHT22;6208;48.956;9.076;2023-05-10T12:37:16;17.60;94.30
12291;DHT22;6208;48.956;9.076;2023-05-10T12:40:01;17.50;94.30
12291;DHT22;6208;48.956;9.076;2023-05-10T12:42:47;17.60;94.80
12291;DHT22;6208;48.956;9.076;2023-05-10T12:45:32;17.60;94.90
12291;DHT22;6208;48.956;9.076;2023-05-10T12:48:16;17.70;94.60
12291;DHT22;6208;48.956;9.076;2023-05-10T12:51:01;17.70;94.30
12291;DHT22;6208;48.956;9.076;2023-05-10T12:53:46;17.60;94.40
12291;DHT22;6208;48.956;9.076;2023-05-10T12:56:31;17.70;94.60
12291;DHT22;6208;48.956;9.076;2023-05-10T12:59:15;17.90;95.20
12291;DHT22;6208;48.956;9.076;2023-05-10T13:01:59;17.80;94.60
12291;DHT22;6208;48.956;9.076;2023-05-10T13:04:47;17.60;95.10
12291;DHT22;6208;48.956;9.076;2023-05-10T13:07:32;17.50;96.20
12291;DHT22;6208;48.956;9.076;2023-05-10T13:10:16;17.50;94.80
12291;DHT22;6208;48.956;9.076;2023-05-10T13:13:00;17.60;95.30
12291;DHT22;6208;48.956;9.076;2023-05-10T13:15:44;17.70;94.00
12291;DHT22;6208;48.956;9.076;2023-05-10T13:18:28;17.90;94.10
12291;DHT22;6208;48.956;9.076;2023-05-10T13:21:12;17.80;92.80
12291;DHT22;6208;48.956;9.076;2023-05-10T13:23:56;17.70;93.30
12291;DHT22;6208;48.956;9.076;2023-05-10T13:26:40;17.70;93.70
12291;DHT22;6208;48.956;9.076;2023-05-10T13:29:25;17.80;93.70
12291;DHT22;6208;48.956;9.076;2023-05-10T13:32:09;17.90;94.40
12291;DHT22;6208;48.956;9.076;2023-05-10T13:34:54;17.80;94.10
12291;DHT22;6208;48.956;9.076;2023-05-10T13:37:38;18.00;94.60
12291;DHT22;6208;48.956;9.076;2023-05-10T13:40:23;18.10;95.10
12291;DHT22;6208;48.956;9.076;2023-05-10T13:43:07;18.30;94.90
12291;DHT22;6208;48.956;9.076;2023-05-10T13:45:51;18.50;94.90
12291;DHT22;6208;48.956;9.076;2023-05-10T13:48:36;18.40;94.00
12291;DHT22;6208;48.956;9.076;2023-05-10T13:51:23;18.20;94.10
12291;DHT22;6208;48.956;9.076;2023-05-10T13:54:07;18.20;94.10
12291;DHT22;6208;48.956;9.076;2023-05-10T13:56:51;18.50;94.70
12291;DHT22;6208;48.956;9.076;2023-05-10T13:59:35;18.40;93.20
12291;DHT22;6208;48.956;9.076;2023-05-10T14:02:19;18.40;92.60
12291;DHT22;6208;48.956;9.076;2023-05-10T14:05:04;18.40;92.20
12291;DHT22;6208;48.956;9.076;2023-05-10T14:07:48;18.30;92.00
12291;DHT22;6208;48.956;9.076;2023-05-10T14:10:32;18.30;91.00
12291;DHT22;6208;48.956;9.076;2023-05-10T14:13:16;18.30;91.30
12291;DHT22;6208;48.956;9.076;2023-05-10T14:16:00;18.40;91.30
12291;DHT22;6208;48.956;9.076;2023-05-10T14:18:45;18.50;91.10
12291;DHT22;6208;48.956;9.076;2023-05-10T14:21:29;18.30;90.00
12291;DHT22;6208;48.956;9.076;2023-05-10T14:24:14;18.20;90.50
12291;DHT22;6208;48.956;9.076;2023-05-10T14:26:59;18.10;91.00
12291;DHT22;6208;48.956;9.076;2023-05-10T14:29:44;18.20;91.40
12291;DHT22;6208;48.956;9.076;2023-05-10T14:32:28;18.30;91.50
12291;DHT22;6208;48.956;9.076;2023-05-10T14:35:12;18.20;91.30
12291;DHT22;6208;48.956;9.076;2023-05-10T14:37:56;18.10;90.90
12291;DHT22;6208;48.956;9.076;2023-05-10T14:40:41;18.20;91.00
12291;DHT22;6208;48.956;9.076;2023-05-10T14:43:26;18.40;92.00
12291;DHT22;6208;48.956;9.076;2023-05-10T14:46:11;18.30;91.70
12291;DHT22;6208;48.956;9.076;2023-05-10T14:48:56;18.20;93.80
12291;DHT22;6208;48.956;9.076;2023-05-10T14:51:40;18.20;93.10
12291;DHT22;6208;48.956;9.076;2023-05-10T14:54:24;18.40;94.10
12291;DHT22;6208;48.956;9.076;2023-05-10T14:57:08;18.30;94.10
12291;DHT22;6208;48.956;9.076;2023-05-10T14:59:52;18.50;93.00
12291;DHT22;6208;48.956;9.076;2023-05-10T15:02:36;18.50;92.00
12291;DHT22;6208;48.956;9.076;2023-05-10T15:05:20;18.60;90.80
12291;DHT22;6208;48.956;9.076;2023-05-10T15:08:05;18.50;91.90
12291;DHT22;6208;48.956;9.076;2023-05-10T15:10:49;18.30;90.00
12291;DHT22;6208;48.956;9.076;2023-05-10T15:13:34;18.30;90.40
12291;DHT22;6208;48.956;9.076;2023-05-10T15:16:18;18.40;90.00
12291;DHT22;6208;48.956;9.076;2023-05-10T15:19:02;18.50;88.00
12291;DHT22;6208;48.956;9.076;2023-05-10T15:21:46;18.50;90.60
12291;DHT22;6208;48.956;9.076;2023-05-10T15:24:31;18.50;91.60
12291;DHT22;6208;48.956;9.076;2023-05-10T15:27:15;18.60;89.60
12291;DHT22;6208;48.956;9.076;2023-05-10T15:30:03;19.70;91.00
12291;DHT22;6208;48.956;9.076;2023-05-10T15:32:47;18.60;85.40
12291;DHT22;6208;48.956;9.076;2023-05-10T15:35:32;18.60;85.90
12291;DHT22;6208;48.956;9.076;2023-05-10T15:38:17;18.50;88.10
12291;DHT22;6208;48.956;9.076;2023-05-10T15:41:02;18.50;88.50
12291;DHT22;6208;48.956;9.076;2023-05-10T15:43:46;18.50;90.60
12291;DHT22;6208;48.956;9.076;2023-05-10T15:46:30;18.30;91.30
12291;DHT22;6208;48.956;9.076;2023-05-10T15:49:14;18.40;90.50
12291;DHT22;6208;48.956;9.076;2023-05-10T15:51:58;18.20;91.80
12291;DHT22;6208;48.956;9.076;2023-05-10T15:54:42;18.20;91.80
12291;DHT22;6208;48.956;9.076;2023-05-10T15:57:26;18.40;91.10
12291;DHT22;6208;48.956;9.076;2023-05-10T16:00:11;18.50;90.80
12291;DHT22;6208;48.956;9.076;2023-05-10T16:02:56;18.40;90.00
12291;DHT22;6208;48.956;9.076;2023-05-10T16:05:40;18.50;88.80
12291;DHT22;6208;48.956;9.076;2023-05-10T16:08:24;18.60;91.50
12291;DHT22;6208;48.956;9.076;2023-05-10T16:11:08;18.60;91.80
12291;DHT22;6208;48.956;9.076;2023-05-10T16:13:53;18.70;90.60
12291;DHT22;6208;48.956;9.076;2023-05-10T16:16:37;18.60;92.10
12291;DHT22;6208;48.956;9.076;2023-05-10T16:19:21;18.60;92.20
12291;DHT22;6208;48.956;9.076;2023-05-10T16:22:05;18.70;89.80
12291;DHT22;6208;48.956;9.076;2023-05-10T16:24:50;18.70;90.40
12291;DHT22;6208;48.956;9.076;2023-05-10T16:27:36;18.70;90.00
12291;DHT22;6208;48.956;9.076;2023-05-10T16:30:21;18.60;88.00
12291;DHT22;6208;48.956;9.076;2023-05-10T16:33:07;18.50;88.90
12291;DHT22;6208;48.956;9.076;2023-05-10T16:35:51;18.30;90.20
12291;DHT22;6208;48.956;9.076;2023-05-10T16:38:35;18.30;87.90
12291;DHT22;6208;48.956;9.076;2023-05-10T16:41:19;18.50;88.10
12291;DHT22;6208;48.956;9.076;2023-05-10T16:44:04;20.00;88.30
12291;DHT22;6208;48.956;9.076;2023-05-10T16:46:48;18.40;87.20
12291;DHT22;6208;48.956;9.076;2023-05-10T16:49:32;18.30;88.10
12291;DHT22;6208;48.956;9.076;2023-05-10T16:52:16;18.20;90.10
12291;DHT22;6208;48.956;9.076;2023-05-10T16:55:01;18.10;89.90
12291;DHT22;6208;48.956;9.076;2023-05-10T16:57:46;18.30;88.70
12291;DHT22;6208;48.956;9.076;2023-05-10T17:00:33;18.20;89.50
12291;DHT22;6208;48.956;9.076;2023-05-10T17:03:17;18.10;90.10
12291;DHT22;6208;48.956;9.076;2023-05-10T17:06:01;18.00;90.50
12291;DHT22;6208;48.956;9.076;2023-05-10T17:08:45;18.20;89.80
12291;DHT22;6208;48.956;9.076;2023-05-10T17:11:30;18.00;90.50
12291;DHT22;6208;48.956;9.076;2023-05-10T17:14:15;18.10;90.80
12291;DHT22;6208;48.956;9.076;2023-05-10T17:16:59;18.10;91.20
12291;DHT22;6208;48.956;9.076;2023-05-10T17:19:46;18.20;89.80
12291;DHT22;6208;48.956;9.076;2023-05-10T17:22:30;18.10;90.50
12291;DHT22;6208;48.956;9.076;2023-05-10T17:25:14;18.20;90.50
12291;DHT22;6208;48.956;9.076;2023-05-10T17:27:59;18.10;90.70
12291;DHT22;6208;48.956;9.076;2023-05-10T17:30:43;17.80;90.30
12291;DHT22;6208;48.956;9.076;2023-05-10T17:33:27;17.90;90.00
12291;DHT22;6208;48.956;9.076;2023-05-10T17:36:11;17.70;90.70
12291;DHT22;6208;48.956;9.076;2023-05-10T17:38:55;17.80;90.70
12291;DHT22;6208;48.956;9.076;2023-05-10T17:41:40;17.70;90.60
12291;DHT22;6208;48.956;9.076;2023-05-10T17:44:24;17.50;90.60
12291;DHT22;6208;48.956;9.076;2023-05-10T17:47:08;17.80;90.60
12291;DHT22;6208;48.956;9.076;2023-05-10T17:49:53;17.70;90.70
12291;DHT22;6208;48.956;9.076;2023-05-10T17:52:37;17.50;90.60
12291;DHT22;6208;48.956;9.076;2023-05-10T17:55:21;17.70;90.70
12291;DHT22;6208;48.956;9.076;2023-05-10T17:58:05;17.50;91.50